sensor_id;sensor_type;location;lat;lon;timestamp;P1;durP1;ratioP1;P2;durP2;ratioP2
84672;SDS011;74899;42.256;23.284;2024-02-23T00:01:59;6.85;;;3.58;;
84672;SDS011;74899;42.256;23.284;2024-02-23T00:04:25;3.70;;;3.40;;
84672;SDS011;74899;42.256;23.284;2024-02-23T00:06:54;11.32;;;4.05;;
84672;SDS011;74899;42.256;23.284;2024-02-23T00:09:21;3.47;;;3.08;;
84672;SDS011;74899;42.256;23.284;2024-02-23T00:11:48;3.78;;;3.30;;
84672;SDS011;74899;42.256;23.284;2024-02-23T00:14:18;5.07;;;3.88;;
84672;SDS011;74899;42.256;23.284;2024-02-23T00:16:46;6.88;;;4.07;;
84672;SDS011;74899;42.256;23.284;2024-02-23T00:19:13;8.75;;;4.07;;
84672;SDS011;74899;42.256;23.284;2024-02-23T00:21:59;5.45;;;4.53;;
84672;SDS011;74899;42.256;23.284;2024-02-23T00:24:25;6.18;;;4.78;;
84672;SDS011;74899;42.256;23.284;2024-02-23T00:26:54;3.85;;;3.55;;
84672;SDS011;74899;42.256;23.284;2024-02-23T00:29:20;9.00;;;4.82;;
84672;SDS011;74899;42.256;23.284;2024-02-23T00:31:46;4.75;;;3.85;;
84672;SDS011;74899;42.256;23.284;2024-02-23T00:34:13;4.00;;;3.70;;
84672;SDS011;74899;42.256;23.284;2024-02-23T00:36:44;4.05;;;3.38;;
84672;SDS011;74899;42.256;23.284;2024-02-23T00:39:10;7.15;;;5.30;;
84672;SDS011;74899;42.256;23.284;2024-02-23T00:41:36;6.85;;;4.20;;
84672;SDS011;74899;42.256;23.284;2024-02-23T00:44:04;7.07;;;3.80;;
84672;SDS011;74899;42.256;23.284;2024-02-23T00:46:31;5.05;;;3.60;;
84672;SDS011;74899;42.256;23.284;2024-02-23T00:48:58;7.75;;;4.65;;
84672;SDS011;74899;42.256;23.284;2024-02-23T00:51:24;8.55;;;5.47;;
84672;SDS011;74899;42.256;23.284;2024-02-23T00:53:50;8.95;;;5.53;;
84672;SDS011;74899;42.256;23.284;2024-02-23T00:56:17;6.38;;;4.43;;
84672;SDS011;74899;42.256;23.284;2024-02-23T00:58:44;8.35;;;4.93;;
84672;SDS011;74899;42.256;23.284;2024-02-23T01:01:10;9.10;;;5.28;;
84672;SDS011;74899;42.256;23.284;2024-02-23T01:03:36;5.30;;;3.75;;
84672;SDS011;74899;42.256;23.284;2024-02-23T01:06:03;5.97;;;3.90;;
84672;SDS011;74899;42.256;23.284;2024-02-23T01:08:32;5.72;;;3.45;;
84672;SDS011;74899;42.256;23.284;2024-02-23T01:10:57;11.48;;;5.28;;
84672;SDS011;74899;42.256;23.284;2024-02-23T01:13:23;9.07;;;4.60;;
84672;SDS011;74899;42.256;23.284;2024-02-23T01:15:49;7.88;;;4.75;;
84672;SDS011;74899;42.256;23.284;2024-02-23T01:18:16;6.50;;;4.30;;
84672;SDS011;74899;42.256;23.284;2024-02-23T01:20:43;7.03;;;4.07;;
84672;SDS011;74899;42.256;23.284;2024-02-23T01:23:09;9.57;;;5.82;;
84672;SDS011;74899;42.256;23.284;2024-02-23T01:25:35;21.65;;;7.80;;
84672;SDS011;74899;42.256;23.284;2024-02-23T01:28:04;13.48;;;6.22;;
84672;SDS011;74899;42.256;23.284;2024-02-23T01:30:33;11.05;;;5.70;;
84672;SDS011;74899;42.256;23.284;2024-02-23T01:32:58;11.00;;;6.20;;
84672;SDS011;74899;42.256;23.284;2024-02-23T01:35:26;7.38;;;4.57;;
84672;SDS011;74899;42.256;23.284;2024-02-23T01:37:57;9.27;;;5.00;;
84672;SDS011;74899;42.256;23.284;2024-02-23T01:40:24;10.48;;;4.72;;
84672;SDS011;74899;42.256;23.284;2024-02-23T01:43:00;10.90;;;5.50;;
84672;SDS011;74899;42.256;23.284;2024-02-23T01:45:35;19.33;;;8.50;;
84672;SDS011;74899;42.256;23.284;2024-02-23T01:48:01;11.65;;;7.35;;
84672;SDS011;74899;42.256;23.284;2024-02-23T01:50:29;9.52;;;5.57;;
84672;SDS011;74899;42.256;23.284;2024-02-23T01:52:57;8.40;;;5.85;;
84672;SDS011;74899;42.256;23.284;2024-02-23T01:55:29;5.80;;;4.25;;
84672;SDS011;74899;42.256;23.284;2024-02-23T01:57:56;9.15;;;4.88;;
84672;SDS011;74899;42.256;23.284;2024-02-23T02:00:23;6.78;;;4.57;;
84672;SDS011;74899;42.256;23.284;2024-02-23T02:02:50;4.53;;;4.07;;
84672;SDS011;74899;42.256;23.284;2024-02-23T02:05:17;9.50;;;3.53;;
84672;SDS011;74899;42.256;23.284;2024-02-23T02:07:44;6.05;;;4.50;;
84672;SDS011;74899;42.256;23.284;2024-02-23T02:10:12;8.50;;;4.32;;
84672;SDS011;74899;42.256;23.284;2024-02-23T02:12:40;8.55;;;5.78;;
84672;SDS011;74899;42.256;23.284;2024-02-23T02:15:07;5.95;;;4.70;;
84672;SDS011;74899;42.256;23.284;2024-02-23T02:17:34;12.07;;;4.60;;
84672;SDS011;74899;42.256;23.284;2024-02-23T02:20:01;6.15;;;4.80;;
84672;SDS011;74899;42.256;23.284;2024-02-23T02:22:35;7.57;;;4.18;;
84672;SDS011;74899;42.256;23.284;2024-02-23T02:25:01;14.07;;;6.68;;
84672;SDS011;74899;42.256;23.284;2024-02-23T02:27:30;22.00;;;8.55;;
84672;SDS011;74899;42.256;23.284;2024-02-23T02:29:56;17.40;;;8.45;;
84672;SDS011;74899;42.256;23.284;2024-02-23T02:32:22;12.45;;;6.75;;
84672;SDS011;74899;42.256;23.284;2024-02-23T02:34:56;5.78;;;4.40;;
84672;SDS011;74899;42.256;23.284;2024-02-23T02:37:22;6.60;;;4.25;;
84672;SDS011;74899;42.256;23.284;2024-02-23T02:39:48;10.38;;;5.15;;
84672;SDS011;74899;42.256;23.284;2024-02-23T02:42:18;5.88;;;4.10;;
84672;SDS011;74899;42.256;23.284;2024-02-23T02:44:44;9.35;;;5.28;;
84672;SDS011;74899;42.256;23.284;2024-02-23T02:47:10;8.68;;;5.10;;
84672;SDS011;74899;42.256;23.284;2024-02-23T02:49:36;7.00;;;4.75;;
84672;SDS011;74899;42.256;23.284;2024-02-23T02:52:02;6.22;;;4.47;;
84672;SDS011;74899;42.256;23.284;2024-02-23T02:54:34;8.88;;;5.35;;
84672;SDS011;74899;42.256;23.284;2024-02-23T02:56:59;11.68;;;5.68;;
84672;SDS011;74899;42.256;23.284;2024-02-23T02:59:26;8.55;;;5.72;;
84672;SDS011;74899;42.256;23.284;2024-02-23T03:01:54;10.25;;;5.57;;
84672;SDS011;74899;42.256;23.284;2024-02-23T03:04:22;11.90;;;5.80;;
84672;SDS011;74899;42.256;23.284;2024-02-23T03:06:48;14.40;;;7.50;;
84672;SDS011;74899;42.256;23.284;2024-02-23T03:09:14;12.32;;;6.63;;
84672;SDS011;74899;42.256;23.284;2024-02-23T03:11:40;17.55;;;7.53;;
84672;SDS011;74899;42.256;23.284;2024-02-23T03:14:08;9.30;;;6.68;;
84672;SDS011;74899;42.256;23.284;2024-02-23T03:16:36;9.93;;;5.07;;
84672;SDS011;74899;42.256;23.284;2024-02-23T03:19:03;5.90;;;4.28;;
84672;SDS011;74899;42.256;23.284;2024-02-23T03:21:34;13.38;;;6.28;;
84672;SDS011;74899;42.256;23.284;2024-02-23T03:24:00;6.85;;;5.50;;
84672;SDS011;74899;42.256;23.284;2024-02-23T03:26:26;5.90;;;5.20;;
84672;SDS011;74899;42.256;23.284;2024-02-23T03:28:57;10.98;;;5.03;;
84672;SDS011;74899;42.256;23.284;2024-02-23T03:31:23;7.80;;;5.00;;
84672;SDS011;74899;42.256;23.284;2024-02-23T03:33:49;6.50;;;4.82;;
84672;SDS011;74899;42.256;23.284;2024-02-23T03:36:16;4.47;;;3.65;;
84672;SDS011;74899;42.256;23.284;2024-02-23T03:38:43;7.38;;;5.38;;
84672;SDS011;74899;42.256;23.284;2024-02-23T03:41:10;8.40;;;5.20;;
84672;SDS011;74899;42.256;23.284;2024-02-23T03:43:36;11.20;;;8.00;;
84672;SDS011;74899;42.256;23.284;2024-02-23T03:46:05;10.45;;;5.57;;
84672;SDS011;74899;42.256;23.284;2024-02-23T03:48:34;6.07;;;4.53;;
84672;SDS011;74899;42.256;23.284;2024-02-23T03:51:02;9.82;;;5.72;;
84672;SDS011;74899;42.256;23.284;2024-02-23T03:53:33;7.47;;;6.30;;
84672;SDS011;74899;42.256;23.284;2024-02-23T03:55:59;7.15;;;4.65;;
84672;SDS011;74899;42.256;23.284;2024-02-23T03:58:27;12.77;;;6.63;;
84672;SDS011;74899;42.256;23.284;2024-02-23T04:00:55;12.90;;;6.65;;
84672;SDS011;74899;42.256;23.284;2024-02-23T04:03:23;14.30;;;7.82;;
84672;SDS011;74899;42.256;23.284;2024-02-23T04:05:49;14.23;;;7.63;;
84672;SDS011;74899;42.256;23.284;2024-02-23T04:08:16;12.32;;;7.03;;
84672;SDS011;74899;42.256;23.284;2024-02-23T04:10:43;8.93;;;6.50;;
84672;SDS011;74899;42.256;23.284;2024-02-23T04:13:12;19.75;;;9.57;;
84672;SDS011;74899;42.256;23.284;2024-02-23T04:15:43;15.68;;;8.55;;
84672;SDS011;74899;42.256;23.284;2024-02-23T04:18:11;16.13;;;9.10;;
84672;SDS011;74899;42.256;23.284;2024-02-23T04:20:41;14.10;;;8.82;;
84672;SDS011;74899;42.256;23.284;2024-02-23T04:23:07;48.72;;;18.30;;
84672;SDS011;74899;42.256;23.284;2024-02-23T04:25:33;28.38;;;14.43;;
84672;SDS011;74899;42.256;23.284;2024-02-23T04:28:00;29.88;;;12.25;;
84672;SDS011;74899;42.256;23.284;2024-02-23T04:30:27;20.48;;;10.38;;
84672;SDS011;74899;42.256;23.284;2024-02-23T04:32:54;18.67;;;9.60;;
84672;SDS011;74899;42.256;23.284;2024-02-23T04:35:20;19.10;;;9.68;;
84672;SDS011;74899;42.256;23.284;2024-02-23T04:37:47;14.13;;;7.82;;
84672;SDS011;74899;42.256;23.284;2024-02-23T04:40:15;17.35;;;8.63;;
84672;SDS011;74899;42.256;23.284;2024-02-23T04:42:46;27.05;;;14.07;;
84672;SDS011;74899;42.256;23.284;2024-02-23T04:45:13;52.53;;;23.17;;
84672;SDS011;74899;42.256;23.284;2024-02-23T04:47:39;33.78;;;16.38;;
84672;SDS011;74899;42.256;23.284;2024-02-23T04:50:08;24.83;;;12.88;;
84672;SDS011;74899;42.256;23.284;2024-02-23T04:52:36;41.22;;;18.10;;
84672;SDS011;74899;42.256;23.284;2024-02-23T04:55:03;28.23;;;15.30;;
84672;SDS011;74899;42.256;23.284;2024-02-23T04:57:32;30.40;;;13.18;;
84672;SDS011;74899;42.256;23.284;2024-02-23T04:59:57;30.42;;;15.90;;
84672;SDS011;74899;42.256;23.284;2024-02-23T05:02:24;13.60;;;9.15;;
84672;SDS011;74899;42.256;23.284;2024-02-23T05:04:54;13.90;;;8.98;;
84672;SDS011;74899;42.256;23.284;2024-02-23T05:07:21;18.50;;;10.35;;
84672;SDS011;74899;42.256;23.284;2024-02-23T05:09:48;19.33;;;9.35;;
84672;SDS011;74899;42.256;23.284;2024-02-23T05:12:15;21.85;;;12.55;;
84672;SDS011;74899;42.256;23.284;2024-02-23T05:14:42;9.32;;;6.13;;
84672;SDS011;74899;42.256;23.284;2024-02-23T05:17:08;13.57;;;8.20;;
84672;SDS011;74899;42.256;23.284;2024-02-23T05:19:34;10.20;;;5.50;;
84672;SDS011;74899;42.256;23.284;2024-02-23T05:22:01;93.55;;;30.20;;
84672;SDS011;74899;42.256;23.284;2024-02-23T05:24:29;212.75;;;71.60;;
84672;SDS011;74899;42.256;23.284;2024-02-23T05:26:57;165.90;;;55.50;;
84672;SDS011;74899;42.256;23.284;2024-02-23T05:29:30;41.17;;;16.10;;
84672;SDS011;74899;42.256;23.284;2024-02-23T05:31:56;8.65;;;5.53;;
84672;SDS011;74899;42.256;23.284;2024-02-23T05:34:22;19.27;;;9.65;;
84672;SDS011;74899;42.256;23.284;2024-02-23T05:36:49;25.85;;;11.98;;
84672;SDS011;74899;42.256;23.284;2024-02-23T05:39:17;9.77;;;6.13;;
84672;SDS011;74899;42.256;23.284;2024-02-23T05:41:44;5.05;;;4.05;;
84672;SDS011;74899;42.256;23.284;2024-02-23T05:44:12;27.15;;;13.77;;
84672;SDS011;74899;42.256;23.284;2024-02-23T05:46:42;21.38;;;11.50;;
84672;SDS011;74899;42.256;23.284;2024-02-23T05:49:08;23.50;;;10.82;;
84672;SDS011;74899;42.256;23.284;2024-02-23T05:51:35;19.05;;;12.20;;
84672;SDS011;74899;42.256;23.284;2024-02-23T05:54:01;33.08;;;13.32;;
84672;SDS011;74899;42.256;23.284;2024-02-23T05:56:31;71.88;;;23.90;;
84672;SDS011;74899;42.256;23.284;2024-02-23T05:58:59;77.53;;;27.05;;
84672;SDS011;74899;42.256;23.284;2024-02-23T06:01:28;58.47;;;23.08;;
84672;SDS011;74899;42.256;23.284;2024-02-23T06:03:54;236.77;;;81.45;;
84672;SDS011;74899;42.256;23.284;2024-02-23T06:06:21;98.20;;;37.17;;
84672;SDS011;74899;42.256;23.284;2024-02-23T06:08:47;112.43;;;42.25;;
84672;SDS011;74899;42.256;23.284;2024-02-23T06:11:15;64.18;;;30.58;;
84672;SDS011;74899;42.256;23.284;2024-02-23T06:13:42;64.88;;;25.33;;
84672;SDS011;74899;42.256;23.284;2024-02-23T06:16:12;42.67;;;22.60;;
84672;SDS011;74899;42.256;23.284;2024-02-23T06:18:39;82.80;;;33.40;;
84672;SDS011;74899;42.256;23.284;2024-02-23T06:21:13;89.18;;;38.17;;
84672;SDS011;74899;42.256;23.284;2024-02-23T06:23:41;63.72;;;28.08;;
84672;SDS011;74899;42.256;23.284;2024-02-23T06:26:09;50.25;;;23.42;;
84672;SDS011;74899;42.256;23.284;2024-02-23T06:28:37;64.95;;;25.48;;
84672;SDS011;74899;42.256;23.284;2024-02-23T06:31:07;185.88;;;62.78;;
84672;SDS011;74899;42.256;23.284;2024-02-23T06:33:34;106.07;;;40.40;;
84672;SDS011;74899;42.256;23.284;2024-02-23T06:36:00;72.65;;;28.60;;
84672;SDS011;74899;42.256;23.284;2024-02-23T06:38:30;176.32;;;62.28;;
84672;SDS011;74899;42.256;23.284;2024-02-23T06:40:56;45.75;;;21.58;;
84672;SDS011;74899;42.256;23.284;2024-02-23T06:43:21;43.83;;;22.63;;
84672;SDS011;74899;42.256;23.284;2024-02-23T06:45:48;74.93;;;29.90;;
84672;SDS011;74899;42.256;23.284;2024-02-23T06:48:18;78.80;;;32.75;;
84672;SDS011;74899;42.256;23.284;2024-02-23T06:50:47;62.33;;;27.30;;
84672;SDS011;74899;42.256;23.284;2024-02-23T06:53:15;30.20;;;14.55;;
84672;SDS011;74899;42.256;23.284;2024-02-23T06:55:44;17.77;;;8.77;;
84672;SDS011;74899;42.256;23.284;2024-02-23T06:58:11;13.20;;;6.85;;
84672;SDS011;74899;42.256;23.284;2024-02-23T07:00:41;53.95;;;21.92;;
84672;SDS011;74899;42.256;23.284;2024-02-23T07:03:08;43.35;;;17.75;;
84672;SDS011;74899;42.256;23.284;2024-02-23T07:05:37;2.83;;;2.63;;
84672;SDS011;74899;42.256;23.284;2024-02-23T07:08:06;41.22;;;17.48;;
84672;SDS011;74899;42.256;23.284;2024-02-23T07:10:32;74.40;;;24.10;;
84672;SDS011;74899;42.256;23.284;2024-02-23T07:12:59;23.63;;;10.43;;
84672;SDS011;74899;42.256;23.284;2024-02-23T07:15:27;31.63;;;10.27;;
84672;SDS011;74899;42.256;23.284;2024-02-23T07:18:00;4.50;;;3.83;;
84672;SDS011;74899;42.256;23.284;2024-02-23T07:20:26;13.15;;;5.82;;
84672;SDS011;74899;42.256;23.284;2024-02-23T07:22:52;14.73;;;7.40;;
84672;SDS011;74899;42.256;23.284;2024-02-23T07:25:18;4.25;;;3.47;;
84672;SDS011;74899;42.256;23.284;2024-02-23T07:27:48;3.90;;;2.78;;
84672;SDS011;74899;42.256;23.284;2024-02-23T07:30:21;49.58;;;20.15;;
84672;SDS011;74899;42.256;23.284;2024-02-23T07:32:49;37.40;;;13.77;;
84672;SDS011;74899;42.256;23.284;2024-02-23T07:35:16;3.03;;;2.72;;
84672;SDS011;74899;42.256;23.284;2024-02-23T07:37:43;5.45;;;4.65;;
84672;SDS011;74899;42.256;23.284;2024-02-23T07:40:09;11.10;;;6.05;;
84672;SDS011;74899;42.256;23.284;2024-02-23T07:42:35;16.00;;;8.13;;
84672;SDS011;74899;42.256;23.284;2024-02-23T07:45:02;6.38;;;5.07;;
84672;SDS011;74899;42.256;23.284;2024-02-23T07:47:30;4.00;;;3.47;;
84672;SDS011;74899;42.256;23.284;2024-02-23T07:49:57;26.08;;;12.60;;
84672;SDS011;74899;42.256;23.284;2024-02-23T07:52:23;1.13;;;1.13;;
84672;SDS011;74899;42.256;23.284;2024-02-23T07:54:49;25.33;;;14.02;;
84672;SDS011;74899;42.256;23.284;2024-02-23T07:57:19;51.83;;;20.48;;
84672;SDS011;74899;42.256;23.284;2024-02-23T07:59:48;30.92;;;14.32;;
84672;SDS011;74899;42.256;23.284;2024-02-23T08:02:21;21.63;;;11.85;;
84672;SDS011;74899;42.256;23.284;2024-02-23T08:04:48;5.00;;;3.72;;
84672;SDS011;74899;42.256;23.284;2024-02-23T08:07:16;2.58;;;1.00;;
84672;SDS011;74899;42.256;23.284;2024-02-23T08:09:43;1.60;;;1.10;;
84672;SDS011;74899;42.256;23.284;2024-02-23T08:12:14;3.83;;;3.15;;
84672;SDS011;74899;42.256;23.284;2024-02-23T08:14:42;7.50;;;5.38;;
84672;SDS011;74899;42.256;23.284;2024-02-23T08:17:10;16.27;;;7.20;;
84672;SDS011;74899;42.256;23.284;2024-02-23T08:19:37;0.95;;;0.95;;
84672;SDS011;74899;42.256;23.284;2024-02-23T08:22:04;3.78;;;3.17;;
84672;SDS011;74899;42.256;23.284;2024-02-23T08:24:30;1.00;;;1.00;;
84672;SDS011;74899;42.256;23.284;2024-02-23T08:26:58;12.90;;;6.38;;
84672;SDS011;74899;42.256;23.284;2024-02-23T08:29:25;15.38;;;7.45;;
84672;SDS011;74899;42.256;23.284;2024-02-23T08:31:55;2.58;;;2.47;;
84672;SDS011;74899;42.256;23.284;2024-02-23T08:34:22;9.90;;;5.85;;
84672;SDS011;74899;42.256;23.284;2024-02-23T08:36:50;3.17;;;2.97;;
84672;SDS011;74899;42.256;23.284;2024-02-23T08:39:23;1.55;;;1.45;;
84672;SDS011;74899;42.256;23.284;2024-02-23T08:41:55;3.42;;;3.15;;
84672;SDS011;74899;42.256;23.284;2024-02-23T08:44:22;0.70;;;0.70;;
84672;SDS011;74899;42.256;23.284;2024-02-23T08:46:47;0.60;;;0.60;;
84672;SDS011;74899;42.256;23.284;2024-02-23T08:49:18;3.67;;;1.83;;
84672;SDS011;74899;42.256;23.284;2024-02-23T08:51:44;0.75;;;0.75;;
84672;SDS011;74899;42.256;23.284;2024-02-23T08:54:10;1.67;;;0.80;;
84672;SDS011;74899;42.256;23.284;2024-02-23T08:56:38;1.35;;;1.35;;
84672;SDS011;74899;42.256;23.284;2024-02-23T08:59:08;2.60;;;2.40;;
84672;SDS011;74899;42.256;23.284;2024-02-23T09:01:35;3.15;;;2.40;;
84672;SDS011;74899;42.256;23.284;2024-02-23T09:04:01;33.80;;;13.63;;
84672;SDS011;74899;42.256;23.284;2024-02-23T09:06:32;1.77;;;1.67;;
84672;SDS011;74899;42.256;23.284;2024-02-23T09:09:03;0.70;;;0.70;;
84672;SDS011;74899;42.256;23.284;2024-02-23T09:11:33;0.50;;;0.50;;
84672;SDS011;74899;42.256;23.284;2024-02-23T09:13:59;5.50;;;3.70;;
84672;SDS011;74899;42.256;23.284;2024-02-23T09:16:25;11.25;;;3.88;;
84672;SDS011;74899;42.256;23.284;2024-02-23T09:18:54;12.15;;;4.18;;
84672;SDS011;74899;42.256;23.284;2024-02-23T09:21:22;0.93;;;0.93;;
84672;SDS011;74899;42.256;23.284;2024-02-23T09:23:48;6.45;;;3.70;;
84672;SDS011;74899;42.256;23.284;2024-02-23T09:26:14;1.55;;;1.50;;
84672;SDS011;74899;42.256;23.284;2024-02-23T09:28:42;1.50;;;1.38;;
84672;SDS011;74899;42.256;23.284;2024-02-23T09:31:10;0.60;;;0.60;;
84672;SDS011;74899;42.256;23.284;2024-02-23T09:33:36;3.10;;;2.83;;
84672;SDS011;74899;42.256;23.284;2024-02-23T09:36:02;0.95;;;0.95;;
84672;SDS011;74899;42.256;23.284;2024-02-23T09:38:30;2.03;;;1.88;;
84672;SDS011;74899;42.256;23.284;2024-02-23T09:40:58;1.42;;;1.33;;
84672;SDS011;74899;42.256;23.284;2024-02-23T09:43:28;0.70;;;0.70;;
84672;SDS011;74899;42.256;23.284;2024-02-23T09:45:58;1.85;;;1.45;;
84672;SDS011;74899;42.256;23.284;2024-02-23T09:48:27;1.27;;;1.17;;
84672;SDS011;74899;42.256;23.284;2024-02-23T09:51:01;3.47;;;2.30;;
84672;SDS011;74899;42.256;23.284;2024-02-23T09:53:34;1.45;;;1.15;;
84672;SDS011;74899;42.256;23.284;2024-02-23T09:56:06;11.40;;;5.43;;
84672;SDS011;74899;42.256;23.284;2024-02-23T09:58:34;1.02;;;1.02;;
84672;SDS011;74899;42.256;23.284;2024-02-23T10:01:02;26.25;;;9.10;;
84672;SDS011;74899;42.256;23.284;2024-02-23T10:03:30;8.27;;;1.45;;
84672;SDS011;74899;42.256;23.284;2024-02-23T10:05:59;13.93;;;7.43;;
84672;SDS011;74899;42.256;23.284;2024-02-23T10:08:30;2.25;;;2.05;;
84672;SDS011;74899;42.256;23.284;2024-02-23T10:10:56;1.52;;;1.42;;
84672;SDS011;74899;42.256;23.284;2024-02-23T10:13:23;5.63;;;1.90;;
84672;SDS011;74899;42.256;23.284;2024-02-23T10:15:53;2.80;;;1.08;;
84672;SDS011;74899;42.256;23.284;2024-02-23T10:18:21;0.80;;;0.80;;
84672;SDS011;74899;42.256;23.284;2024-02-23T10:20:47;1.17;;;0.77;;
84672;SDS011;74899;42.256;23.284;2024-02-23T10:23:16;1.60;;;1.50;;
84672;SDS011;74899;42.256;23.284;2024-02-23T10:25:45;1.38;;;1.38;;
84672;SDS011;74899;42.256;23.284;2024-02-23T10:28:11;2.20;;;1.95;;
84672;SDS011;74899;42.256;23.284;2024-02-23T10:30:38;1.63;;;1.52;;
84672;SDS011;74899;42.256;23.284;2024-02-23T10:33:04;1.27;;;1.23;;
84672;SDS011;74899;42.256;23.284;2024-02-23T10:35:31;1.60;;;1.50;;
84672;SDS011;74899;42.256;23.284;2024-02-23T10:38:07;1.70;;;1.60;;
84672;SDS011;74899;42.256;23.284;2024-02-23T10:40:39;1.10;;;1.10;;
84672;SDS011;74899;42.256;23.284;2024-02-23T10:43:12;1.40;;;1.35;;
84672;SDS011;74899;42.256;23.284;2024-02-23T10:45:42;2.60;;;2.50;;
84672;SDS011;74899;42.256;23.284;2024-02-23T10:48:10;1.85;;;1.75;;
84672;SDS011;74899;42.256;23.284;2024-02-23T10:50:40;1.75;;;1.65;;
84672;SDS011;74899;42.256;23.284;2024-02-23T10:53:09;2.60;;;2.40;;
84672;SDS011;74899;42.256;23.284;2024-02-23T10:55:37;5.90;;;4.40;;
84672;SDS011;74899;42.256;23.284;2024-02-23T10:58:06;2.70;;;2.60;;
84672;SDS011;74899;42.256;23.284;2024-02-23T11:00:37;2.65;;;2.22;;
84672;SDS011;74899;42.256;23.284;2024-02-23T11:03:05;1.45;;;1.45;;
84672;SDS011;74899;42.256;23.284;2024-02-23T11:05:33;4.45;;;4.00;;
84672;SDS011;74899;42.256;23.284;2024-02-23T11:08:01;2.75;;;1.60;;
84672;SDS011;74899;42.256;23.284;2024-02-23T11:10:28;0.88;;;0.88;;
84672;SDS011;74899;42.256;23.284;2024-02-23T11:13:01;1.75;;;1.65;;
84672;SDS011;74899;42.256;23.284;2024-02-23T11:15:33;1.10;;;1.00;;
84672;SDS011;74899;42.256;23.284;2024-02-23T11:18:20;1.15;;;1.15;;
84672;SDS011;74899;42.256;23.284;2024-02-23T11:20:53;4.65;;;1.23;;
84672;SDS011;74899;42.256;23.284;2024-02-23T11:23:24;0.50;;;0.50;;
84672;SDS011;74899;42.256;23.284;2024-02-23T11:26:06;0.45;;;0.45;;
84672;SDS011;74899;42.256;23.284;2024-02-23T11:28:51;1.20;;;1.20;;
84672;SDS011;74899;42.256;23.284;2024-02-23T11:31:22;0.93;;;0.93;;
84672;SDS011;74899;42.256;23.284;2024-02-23T11:33:51;4.18;;;3.78;;
84672;SDS011;74899;42.256;23.284;2024-02-23T11:36:23;1.83;;;1.73;;
84672;SDS011;74899;42.256;23.284;2024-02-23T11:38:58;0.60;;;0.60;;
84672;SDS011;74899;42.256;23.284;2024-02-23T11:41:27;0.65;;;0.65;;
84672;SDS011;74899;42.256;23.284;2024-02-23T11:43:54;5.00;;;2.80;;
84672;SDS011;74899;42.256;23.284;2024-02-23T11:46:22;0.68;;;0.68;;
84672;SDS011;74899;42.256;23.284;2024-02-23T11:48:49;1.02;;;0.77;;
84672;SDS011;74899;42.256;23.284;2024-02-23T11:51:20;1.20;;;1.20;;
84672;SDS011;74899;42.256;23.284;2024-02-23T11:53:48;1.42;;;1.33;;
84672;SDS011;74899;42.256;23.284;2024-02-23T11:56:19;1.85;;;1.75;;
84672;SDS011;74899;42.256;23.284;2024-02-23T11:58:47;0.88;;;0.88;;
84672;SDS011;74899;42.256;23.284;2024-02-23T12:01:21;0.95;;;0.95;;
84672;SDS011;74899;42.256;23.284;2024-02-23T12:03:47;3.00;;;2.70;;
84672;SDS011;74899;42.256;23.284;2024-02-23T12:06:14;0.73;;;0.73;;
84672;SDS011;74899;42.256;23.284;2024-02-23T12:08:42;2.00;;;1.75;;
84672;SDS011;74899;42.256;23.284;2024-02-23T12:11:11;1.00;;;1.00;;
84672;SDS011;74899;42.256;23.284;2024-02-23T12:13:39;2.33;;;0.95;;
84672;SDS011;74899;42.256;23.284;2024-02-23T12:16:10;2.15;;;0.68;;
84672;SDS011;74899;42.256;23.284;2024-02-23T12:18:36;1.40;;;1.40;;
84672;SDS011;74899;42.256;23.284;2024-02-23T12:21:08;0.80;;;0.80;;
84672;SDS011;74899;42.256;23.284;2024-02-23T12:23:41;2.25;;;2.13;;
84672;SDS011;74899;42.256;23.284;2024-02-23T12:26:09;1.20;;;1.10;;
84672;SDS011;74899;42.256;23.284;2024-02-23T12:28:39;1.27;;;1.27;;
84672;SDS011;74899;42.256;23.284;2024-02-23T12:31:07;3.53;;;1.60;;
84672;SDS011;74899;42.256;23.284;2024-02-23T12:33:37;1.23;;;1.23;;
84672;SDS011;74899;42.256;23.284;2024-02-23T12:36:08;3.03;;;1.10;;
84672;SDS011;74899;42.256;23.284;2024-02-23T12:38:37;1.33;;;1.23;;
84672;SDS011;74899;42.256;23.284;2024-02-23T12:41:04;1.15;;;1.15;;
84672;SDS011;74899;42.256;23.284;2024-02-23T12:43:34;1.45;;;1.35;;
84672;SDS011;74899;42.256;23.284;2024-02-23T12:46:01;1.05;;;1.05;;
84672;SDS011;74899;42.256;23.284;2024-02-23T12:48:29;2.13;;;1.80;;
84672;SDS011;74899;42.256;23.284;2024-02-23T12:50:56;1.88;;;1.77;;
84672;SDS011;74899;42.256;23.284;2024-02-23T12:53:38;1.38;;;1.30;;
84672;SDS011;74899;42.256;23.284;2024-02-23T12:56:11;0.98;;;0.98;;
84672;SDS011;74899;42.256;23.284;2024-02-23T12:58:45;0.85;;;0.85;;
84672;SDS011;74899;42.256;23.284;2024-02-23T13:01:12;1.30;;;1.30;;
84672;SDS011;74899;42.256;23.284;2024-02-23T13:03:39;1.60;;;1.50;;
84672;SDS011;74899;42.256;23.284;2024-02-23T13:06:08;4.75;;;1.10;;
84672;SDS011;74899;42.256;23.284;2024-02-23T13:08:35;1.40;;;1.40;;
84672;SDS011;74899;42.256;23.284;2024-02-23T13:11:03;1.17;;;1.17;;
84672;SDS011;74899;42.256;23.284;2024-02-23T13:13:29;1.00;;;1.00;;
84672;SDS011;74899;42.256;23.284;2024-02-23T13:15:57;1.63;;;1.55;;
84672;SDS011;74899;42.256;23.284;2024-02-23T13:18:25;2.13;;;1.23;;
84672;SDS011;74899;42.256;23.284;2024-02-23T13:20:52;1.40;;;1.23;;
84672;SDS011;74899;42.256;23.284;2024-02-23T13:23:20;4.15;;;1.27;;
84672;SDS011;74899;42.256;23.284;2024-02-23T13:25:46;1.20;;;1.10;;
84672;SDS011;74899;42.256;23.284;2024-02-23T13:28:13;0.65;;;0.65;;
84672;SDS011;74899;42.256;23.284;2024-02-23T13:30:44;0.80;;;0.80;;
84672;SDS011;74899;42.256;23.284;2024-02-23T13:33:12;2.17;;;1.92;;
84672;SDS011;74899;42.256;23.284;2024-02-23T13:35:38;2.05;;;1.38;;
84672;SDS011;74899;42.256;23.284;2024-02-23T13:38:06;1.00;;;1.00;;
84672;SDS011;74899;42.256;23.284;2024-02-23T13:40:33;1.10;;;1.10;;
84672;SDS011;74899;42.256;23.284;2024-02-23T13:43:00;1.83;;;1.73;;
84672;SDS011;74899;42.256;23.284;2024-02-23T13:45:26;1.17;;;1.17;;
84672;SDS011;74899;42.256;23.284;2024-02-23T13:47:56;1.20;;;1.20;;
84672;SDS011;74899;42.256;23.284;2024-02-23T13:50:27;1.73;;;1.30;;
84672;SDS011;74899;42.256;23.284;2024-02-23T13:52:55;2.45;;;1.67;;
84672;SDS011;74899;42.256;23.284;2024-02-23T13:55:22;1.38;;;1.38;;
84672;SDS011;74899;42.256;23.284;2024-02-23T13:57:50;1.63;;;1.52;;
84672;SDS011;74899;42.256;23.284;2024-02-23T14:00:18;1.50;;;1.50;;
84672;SDS011;74899;42.256;23.284;2024-02-23T14:02:46;1.90;;;1.80;;
84672;SDS011;74899;42.256;23.284;2024-02-23T14:05:13;1.55;;;1.50;;
84672;SDS011;74899;42.256;23.284;2024-02-23T14:07:45;1.60;;;1.58;;
84672;SDS011;74899;42.256;23.284;2024-02-23T14:10:11;1.20;;;1.17;;
84672;SDS011;74899;42.256;23.284;2024-02-23T14:12:37;2.80;;;2.42;;
84672;SDS011;74899;42.256;23.284;2024-02-23T14:15:05;3.15;;;2.85;;
84672;SDS011;74899;42.256;23.284;2024-02-23T14:17:35;3.42;;;3.17;;
84672;SDS011;74899;42.256;23.284;2024-02-23T14:20:03;1.63;;;1.55;;
84672;SDS011;74899;42.256;23.284;2024-02-23T14:22:33;1.45;;;1.30;;
84672;SDS011;74899;42.256;23.284;2024-02-23T14:24:59;1.70;;;1.60;;
84672;SDS011;74899;42.256;23.284;2024-02-23T14:27:26;1.83;;;1.73;;
84672;SDS011;74899;42.256;23.284;2024-02-23T14:29:54;3.47;;;1.77;;
84672;SDS011;74899;42.256;23.284;2024-02-23T14:32:23;1.67;;;1.58;;
84672;SDS011;74899;42.256;23.284;2024-02-23T14:34:52;3.05;;;2.50;;